createdAt,value
2023-05-17T00:00:53.578Z,95026.00
2023-05-17T00:01:53.594Z,95028.00
2023-05-17T00:02:53.659Z,95036.00
2023-05-17T00:03:53.653Z,95034.00
2023-05-17T00:04:53.834Z,95036.00
2023-05-17T00:05:53.757Z,95042.00
2023-05-17T00:06:53.752Z,95040.00
2023-05-17T00:07:53.789Z,95042.00
2023-05-17T00:08:53.823Z,95042.00
2023-05-17T00:09:53.875Z,95046.00
2023-05-17T00:10:53.916Z,95046.00
2023-05-17T00:11:53.988Z,95044.00
2023-05-17T00:12:54.010Z,95044.00
2023-05-17T00:13:54.071Z,95044.00
2023-05-17T00:14:54.149Z,95052.00
2023-05-17T00:15:54.143Z,95050.00
2023-05-17T00:16:54.205Z,95046.00
2023-05-17T00:17:54.276Z,95046.00
2023-05-17T00:18:54.310Z,95046.00
2023-05-17T00:19:54.397Z,95044.00
2023-05-17T00:20:54.352Z,95050.00
2023-05-17T00:21:54.398Z,95050.00
2023-05-17T00:22:54.448Z,95046.00
2023-05-17T00:23:54.487Z,95050.00
2023-05-17T00:24:54.533Z,95052.00
2023-05-17T00:25:54.567Z,95052.00
2023-05-17T00:26:54.640Z,95046.00
2023-05-17T00:27:54.771Z,95054.00
2023-05-17T00:28:54.719Z,95056.00
2023-05-17T00:29:54.769Z,95060.00
2023-05-17T00:30:54.800Z,95060.00
2023-05-17T00:31:54.862Z,95060.00
2023-05-17T00:32:54.967Z,95062.00
2023-05-17T00:33:54.945Z,95060.00
2023-05-17T00:34:55.047Z,95062.00
2023-05-17T00:35:55.043Z,95058.00
2023-05-17T00:36:55.082Z,95056.00
2023-05-17T00:37:55.137Z,95058.00
2023-05-17T00:38:55.184Z,95054.00
2023-05-17T00:39:55.239Z,95054.00
2023-05-17T00:40:55.282Z,95058.00
2023-05-17T00:41:55.334Z,95060.00
2023-05-17T00:42:55.383Z,95054.00
2023-05-17T00:43:55.535Z,95054.00
2023-05-17T00:44:55.495Z,95058.00
2023-05-17T00:45:55.532Z,95054.00
2023-05-17T00:46:55.588Z,95060.00
2023-05-17T00:47:55.707Z,95058.00
2023-05-17T00:48:55.698Z,95056.00
2023-05-17T00:49:55.759Z,95058.00
2023-05-17T00:50:55.810Z,95060.00
2023-05-17T00:51:55.870Z,95064.00
2023-05-17T00:52:55.933Z,95060.00
2023-05-17T00:53:55.981Z,95064.00
2023-05-17T00:54:56.029Z,95068.00
2023-05-17T00:55:56.084Z,95069.00
2023-05-17T00:56:56.139Z,95068.00
2023-05-17T00:57:56.227Z,95068.00
2023-05-17T00:58:56.246Z,95058.00
2023-05-17T00:59:56.476Z,95058.00
2023-05-17T01:00:56.371Z,95060.00
2023-05-17T01:01:56.483Z,95062.00
2023-05-17T01:02:56.558Z,95064.00
2023-05-17T01:03:56.564Z,95068.00
2023-05-17T01:04:56.607Z,95071.00
2023-05-17T01:05:56.657Z,95069.00
2023-05-17T01:06:56.707Z,95073.00
2023-05-17T01:07:56.762Z,95075.00
2023-05-17T01:08:56.826Z,95073.00
2023-05-17T01:09:56.875Z,95075.00
2023-05-17T01:10:56.972Z,95071.00
2023-05-17T01:11:57.003Z,95075.00
2023-05-17T01:12:57.060Z,95075.00
2023-05-17T01:13:57.116Z,95075.00
2023-05-17T01:14:57.183Z,95079.00
2023-05-17T01:15:57.252Z,95077.00
2023-05-17T01:16:57.308Z,95077.00
2023-05-17T01:17:57.436Z,95079.00
2023-05-17T01:18:57.495Z,95077.00
2023-05-17T01:19:57.583Z,95075.00
2023-05-17T01:20:57.540Z,95075.00
2023-05-17T01:21:57.593Z,95081.00
2023-05-17T01:22:57.647Z,95085.00
2023-05-17T01:23:57.706Z,95089.00
2023-05-17T01:24:57.772Z,95087.00
2023-05-17T01:25:57.828Z,95089.00
2023-05-17T01:26:57.894Z,95091.00
2023-05-17T01:27:57.990Z,95087.00
2023-05-17T01:28:58.010Z,95087.00
2023-05-17T01:29:58.064Z,95091.00
2023-05-17T01:30:58.134Z,95099.00
2023-05-17T01:31:58.322Z,95101.00
2023-05-17T01:32:58.395Z,95105.00
2023-05-17T01:33:58.358Z,95103.00
2023-05-17T01:34:58.333Z,95097.00
2023-05-17T01:35:58.389Z,95105.00
2023-05-17T01:36:58.442Z,95099.00
2023-05-17T01:37:58.498Z,95097.00
2023-05-17T01:38:58.545Z,95101.00
2023-05-17T01:39:58.680Z,95103.00
2023-05-17T01:40:58.683Z,95105.00
2023-05-17T01:41:58.725Z,95101.00
2023-05-17T01:42:58.783Z,95097.00
2023-05-17T01:43:59.561Z,95107.00
2023-05-17T01:44:58.920Z,95107.00
2023-05-17T01:45:58.969Z,95105.00
2023-05-17T01:46:59.016Z,95107.00
2023-05-17T01:47:59.155Z,95111.00
2023-05-17T01:48:59.268Z,95107.00
2023-05-17T01:49:59.200Z,95109.00
2023-05-17T01:50:59.264Z,95115.00
2023-05-17T01:51:59.325Z,95115.00
2023-05-17T01:52:59.379Z,95105.00
2023-05-17T01:53:59.434Z,95107.00
2023-05-17T01:54:59.510Z,95113.00
2023-05-17T01:55:59.557Z,95117.00
2023-05-17T01:56:59.632Z,95119.00
2023-05-17T01:57:59.677Z,95120.00
2023-05-17T01:58:59.743Z,95117.00
2023-05-17T01:59:59.779Z,95119.00
2023-05-17T02:00:59.843Z,95120.00
2023-05-17T02:01:59.881Z,95117.00
2023-05-17T02:02:59.974Z,95117.00
2023-05-17T02:04:00.067Z,95120.00
2023-05-17T02:05:00.111Z,95120.00
2023-05-17T02:06:00.117Z,95122.00
2023-05-17T02:07:00.162Z,95126.00
2023-05-17T02:08:00.234Z,95124.00
2023-05-17T02:09:00.278Z,95126.00
2023-05-17T02:10:00.400Z,95130.00
2023-05-17T02:11:00.450Z,95128.00
2023-05-17T02:12:00.446Z,95132.00
2023-05-17T02:13:00.501Z,95132.00
2023-05-17T02:14:00.571Z,95130.00
2023-05-17T02:15:00.618Z,95132.00
2023-05-17T02:16:00.699Z,95132.00
2023-05-17T02:17:00.729Z,95132.00
2023-05-17T02:18:00.923Z,95138.00
2023-05-17T02:19:00.883Z,95148.00
2023-05-17T02:20:01.013Z,95138.00
2023-05-17T02:21:00.971Z,95132.00
2023-05-17T02:22:01.029Z,95146.00
2023-05-17T02:23:01.088Z,95138.00
2023-05-17T02:24:01.129Z,95134.00
2023-05-17T02:25:01.191Z,95138.00
2023-05-17T02:26:01.247Z,95148.00
2023-05-17T02:27:01.320Z,95150.00
2023-05-17T02:28:01.367Z,95150.00
2023-05-17T02:29:01.420Z,95148.00
2023-05-17T02:30:01.482Z,95152.00
2023-05-17T02:31:01.542Z,95148.00
2023-05-17T02:32:01.589Z,95138.00
2023-05-17T02:33:01.708Z,95148.00
2023-05-17T02:34:01.729Z,95150.00
2023-05-17T02:35:01.758Z,95152.00
2023-05-17T02:36:02.011Z,95150.00
2023-05-17T02:37:01.872Z,95152.00
2023-05-17T02:38:01.978Z,95152.00
2023-05-17T02:39:02.001Z,95154.00
2023-05-17T02:40:02.077Z,95154.00
2023-05-17T02:41:02.098Z,95152.00
2023-05-17T02:42:02.163Z,95154.00
2023-05-17T02:43:02.224Z,95158.00
2023-05-17T02:44:02.274Z,95160.00
2023-05-17T02:45:02.389Z,95164.00
2023-05-17T02:46:02.386Z,95160.00
2023-05-17T02:47:02.471Z,95160.00
2023-05-17T02:48:02.538Z,95160.00
2023-05-17T02:49:02.585Z,95164.00
2023-05-17T02:50:02.621Z,95166.00
2023-05-17T02:51:02.666Z,95174.00
2023-05-17T02:52:02.841Z,95168.00
2023-05-17T02:53:02.790Z,95170.00
2023-05-17T02:54:02.838Z,95170.00
2023-05-17T02:55:02.905Z,95170.00
2023-05-17T02:56:02.957Z,95172.00
2023-05-17T02:57:03.012Z,95176.00
2023-05-17T02:58:03.082Z,95174.00
2023-05-17T02:59:03.135Z,95179.00
2023-05-17T03:00:03.195Z,95177.00
2023-05-17T03:01:03.258Z,95177.00
2023-05-17T03:02:03.312Z,95177.00
2023-05-17T03:03:03.437Z,95183.00
2023-05-17T03:04:03.672Z,95183.00
2023-05-17T03:05:03.485Z,95191.00
2023-05-17T03:06:03.535Z,95191.00
2023-05-17T03:07:05.825Z,95197.00
2023-05-17T03:08:03.720Z,95195.00
2023-05-17T03:09:03.614Z,95193.00
2023-05-17T03:10:03.634Z,95195.00
2023-05-17T03:11:03.647Z,95199.00
2023-05-17T03:12:03.637Z,95193.00
2023-05-17T03:13:03.645Z,95195.00
2023-05-17T03:14:03.660Z,95201.00
2023-05-17T03:15:03.665Z,95199.00
2023-05-17T03:16:03.676Z,95197.00
2023-05-17T03:17:03.708Z,95203.00
2023-05-17T03:18:03.811Z,95211.00
2023-05-17T03:19:03.804Z,95213.00
2023-05-17T03:20:03.740Z,95209.00
2023-05-17T03:21:03.736Z,95203.00
2023-05-17T03:22:03.745Z,95211.00
2023-05-17T03:23:03.768Z,95213.00
2023-05-17T03:24:03.792Z,95219.00
2023-05-17T03:25:03.777Z,95217.00
2023-05-17T03:26:03.791Z,95219.00
2023-05-17T03:27:03.848Z,95211.00
2023-05-17T03:28:03.798Z,95209.00
2023-05-17T03:29:03.797Z,95213.00
2023-05-17T03:30:03.818Z,95213.00
2023-05-17T03:31:03.898Z,95213.00
2023-05-17T03:32:03.904Z,95213.00
2023-05-17T03:33:04.058Z,95215.00
2023-05-17T03:34:04.150Z,95215.00
2023-05-17T03:35:04.044Z,95217.00
2023-05-17T03:36:04.126Z,95224.00
2023-05-17T03:37:04.135Z,95232.00
2023-05-17T03:38:04.169Z,95226.00
2023-05-17T03:39:04.222Z,95221.00
2023-05-17T03:40:04.357Z,95223.00
2023-05-17T03:41:04.295Z,95230.00
2023-05-17T03:42:04.345Z,95234.00
2023-05-17T03:43:04.378Z,95234.00
2023-05-17T03:44:04.417Z,95226.00
2023-05-17T03:45:04.474Z,95221.00
2023-05-17T03:46:04.499Z,95230.00
2023-05-17T03:47:04.531Z,95232.00
2023-05-17T03:48:04.584Z,95236.00
2023-05-17T03:49:04.607Z,95230.00
2023-05-17T03:50:04.646Z,95226.00
2023-05-17T03:51:04.665Z,95232.00
2023-05-17T03:52:04.699Z,95232.00
2023-05-17T03:53:04.720Z,95232.00
2023-05-17T03:54:04.750Z,95236.00
2023-05-17T03:55:04.804Z,95232.00
2023-05-17T03:56:04.893Z,95224.00
2023-05-17T03:57:04.822Z,95230.00
2023-05-17T03:58:04.851Z,95234.00
2023-05-17T03:59:04.888Z,95240.00
2023-05-17T04:00:04.898Z,95238.00
2023-05-17T04:01:04.966Z,95240.00
2023-05-17T04:02:04.965Z,95236.00
2023-05-17T04:03:05.067Z,95232.00
2023-05-17T04:04:05.024Z,95234.00
2023-05-17T04:05:05.051Z,95240.00
2023-05-17T04:06:05.064Z,95244.00
2023-05-17T04:07:05.092Z,95250.00
2023-05-17T04:08:05.124Z,95244.00
2023-05-17T04:09:05.170Z,95244.00
2023-05-17T04:10:05.168Z,95254.00
2023-05-17T04:11:05.187Z,95252.00
2023-05-17T04:12:05.428Z,95248.00
2023-05-17T04:13:05.249Z,95250.00
2023-05-17T04:14:05.251Z,95250.00
2023-05-17T04:15:05.268Z,95260.00
2023-05-17T04:16:05.276Z,95271.00
2023-05-17T04:17:05.329Z,95271.00
2023-05-17T04:18:05.399Z,95260.00
2023-05-17T04:19:05.382Z,95250.00
2023-05-17T04:20:05.345Z,95260.00
2023-05-17T04:21:05.355Z,95264.00
2023-05-17T04:22:05.374Z,95271.00
2023-05-17T04:23:05.394Z,95283.00
2023-05-17T04:24:05.400Z,95273.00
2023-05-17T04:25:05.426Z,95279.00
2023-05-17T04:26:05.445Z,95277.00
2023-05-17T04:27:05.488Z,95273.00
2023-05-17T04:28:05.585Z,95279.00
2023-05-17T04:29:05.503Z,95273.00
2023-05-17T04:30:05.507Z,95277.00
2023-05-17T04:31:05.524Z,95277.00
2023-05-17T04:32:05.554Z,95271.00
2023-05-17T04:33:05.651Z,95277.00
2023-05-17T04:34:05.744Z,95283.00
2023-05-17T04:35:05.641Z,95285.00
2023-05-17T04:36:05.652Z,95283.00
2023-05-17T04:37:05.679Z,95287.00
2023-05-17T04:38:05.702Z,95295.00
2023-05-17T04:39:05.725Z,95299.00
2023-05-17T04:40:05.741Z,95295.00
2023-05-17T04:41:05.757Z,95295.00
2023-05-17T04:42:05.781Z,95289.00
2023-05-17T04:43:05.786Z,95295.00
2023-05-17T04:44:05.854Z,95289.00
2023-05-17T04:45:05.822Z,95289.00
2023-05-17T04:46:05.843Z,95277.00
2023-05-17T04:47:05.853Z,95287.00
2023-05-17T04:48:05.952Z,95301.00
2023-05-17T04:49:05.900Z,95305.00
2023-05-17T04:50:05.883Z,95301.00
2023-05-17T04:51:05.898Z,95307.00
2023-05-17T04:52:06.350Z,95309.00
2023-05-17T04:53:05.929Z,95299.00
2023-05-17T04:54:05.938Z,95295.00
2023-05-17T04:55:05.953Z,95295.00
2023-05-17T04:56:05.973Z,95295.00
2023-05-17T04:57:06.153Z,95291.00
2023-05-17T04:58:05.996Z,95305.00
2023-05-17T04:59:06.015Z,95311.00
2023-05-17T05:00:06.137Z,95313.00
2023-05-17T05:01:06.038Z,95309.00
2023-05-17T05:02:06.056Z,95309.00
2023-05-17T05:03:06.150Z,95317.00
2023-05-17T05:04:06.340Z,95313.00
2023-05-17T05:05:06.180Z,95309.00
2023-05-17T05:06:06.124Z,95303.00
2023-05-17T05:07:06.133Z,95305.00
2023-05-17T05:08:06.148Z,95307.00
2023-05-17T05:09:06.166Z,95313.00
2023-05-17T05:10:06.177Z,95311.00
2023-05-17T05:11:06.183Z,95315.00
2023-05-17T05:12:06.186Z,95315.00
2023-05-17T05:13:06.663Z,95313.00
2023-05-17T05:14:06.210Z,95315.00
2023-05-17T05:15:06.239Z,95324.00
2023-05-17T05:16:06.279Z,95324.00
2023-05-17T05:17:06.262Z,95326.00
2023-05-17T05:18:06.768Z,95330.00
2023-05-17T05:19:06.433Z,95336.00
2023-05-17T05:20:06.308Z,95332.00
2023-05-17T05:21:06.324Z,95332.00
2023-05-17T05:22:06.337Z,95332.00
2023-05-17T05:23:06.660Z,95330.00
2023-05-17T05:24:06.373Z,95326.00
2023-05-17T05:25:06.655Z,95328.00
2023-05-17T05:26:06.394Z,95328.00
2023-05-17T05:27:07.181Z,95334.00
2023-05-17T05:28:06.412Z,95334.00
2023-05-17T05:29:06.398Z,95334.00
2023-05-17T05:30:06.415Z,95328.00
2023-05-17T05:31:06.399Z,95328.00
2023-05-17T05:32:06.574Z,95330.00
2023-05-17T05:33:06.864Z,95332.00
2023-05-17T05:34:06.509Z,95332.00
2023-05-17T05:35:06.420Z,95334.00
2023-05-17T05:36:06.441Z,95334.00
2023-05-17T05:37:06.469Z,95338.00
2023-05-17T05:38:06.548Z,95334.00
2023-05-17T05:39:08.529Z,95336.00
2023-05-17T05:40:06.508Z,95336.00
2023-05-17T05:41:06.479Z,95336.00
2023-05-17T05:42:06.477Z,95342.00
2023-05-17T05:43:06.648Z,95342.00
2023-05-17T05:44:06.477Z,95348.00
2023-05-17T05:45:06.521Z,95350.00
2023-05-17T05:46:06.499Z,95352.00
2023-05-17T05:47:06.661Z,95360.00
2023-05-17T05:48:06.790Z,95346.00
2023-05-17T05:49:06.578Z,95340.00
2023-05-17T05:50:06.469Z,95342.00
2023-05-17T05:51:06.458Z,95346.00
2023-05-17T05:52:06.467Z,95348.00
2023-05-17T05:53:17.107Z,95346.00
2023-05-17T05:54:07.236Z,95348.00
2023-05-17T05:55:06.665Z,95352.00
2023-05-17T05:56:06.446Z,95350.00
2023-05-17T05:57:06.508Z,95356.00
2023-05-17T05:58:09.632Z,95354.00
2023-05-17T05:59:06.659Z,95358.00
2023-05-17T06:00:06.455Z,95362.00
2023-05-17T06:01:06.686Z,95360.00
2023-05-17T06:02:06.456Z,95360.00
2023-05-17T06:03:07.168Z,95360.00
2023-05-17T06:05:06.565Z,95362.00
2023-05-17T06:06:13.976Z,95360.00
2023-05-17T06:07:06.485Z,95358.00
2023-05-17T06:08:06.665Z,95362.00
2023-05-17T06:09:06.420Z,95362.00
2023-05-17T06:10:06.435Z,95364.00
2023-05-17T06:11:06.425Z,95362.00
2023-05-17T06:12:06.471Z,95366.00
2023-05-17T06:13:07.268Z,95364.00
2023-05-17T06:14:06.411Z,95362.00
2023-05-17T06:15:06.395Z,95362.00
2023-05-17T06:16:13.820Z,95362.00
2023-05-17T06:17:06.385Z,95362.00
2023-05-17T06:18:06.747Z,95366.00
2023-05-17T06:19:06.400Z,95372.00
2023-05-17T06:20:06.367Z,95370.00
2023-05-17T06:21:06.467Z,95375.00
2023-05-17T06:22:06.367Z,95373.00
2023-05-17T06:23:06.666Z,95379.00
2023-05-17T06:24:06.345Z,95379.00
2023-05-17T06:25:06.380Z,95381.00
2023-05-17T06:26:06.341Z,95381.00
2023-05-17T06:27:06.340Z,95383.00
2023-05-17T06:28:06.329Z,95381.00
2023-05-17T06:29:06.326Z,95381.00
2023-05-17T06:30:07.318Z,95385.00
2023-05-17T06:31:06.314Z,95383.00
2023-05-17T06:32:06.316Z,95385.00
2023-05-17T06:33:06.782Z,95385.00
2023-05-17T06:34:06.348Z,95383.00
2023-05-17T06:35:06.275Z,95383.00
2023-05-17T06:36:06.308Z,95385.00
2023-05-17T06:37:06.353Z,95385.00
2023-05-17T06:38:06.671Z,95385.00
2023-05-17T06:39:06.425Z,95387.00
2023-05-17T06:41:05.484Z,95393.00
2023-05-17T06:42:06.450Z,95403.00
2023-05-17T06:43:06.668Z,95403.00
2023-05-17T06:44:06.454Z,95395.00
2023-05-17T06:45:06.448Z,95395.00
2023-05-17T06:46:06.688Z,95403.00
2023-05-17T06:47:07.420Z,95395.00
2023-05-17T06:48:06.731Z,95393.00
2023-05-17T06:50:07.441Z,95395.00
2023-05-17T06:51:13.800Z,95393.00
2023-05-17T06:52:09.760Z,95393.00
2023-05-17T06:53:06.687Z,95391.00
2023-05-17T06:54:09.660Z,95393.00
2023-05-17T06:55:06.410Z,95393.00
2023-05-17T06:57:21.985Z,95395.00
2023-05-17T06:58:10.578Z,95407.00
2023-05-17T06:59:22.299Z,95407.00
2023-05-17T07:00:06.442Z,95407.00
2023-05-17T07:01:13.760Z,95409.00
2023-05-17T07:02:09.557Z,95407.00
2023-05-17T07:04:06.388Z,95407.00
2023-05-17T07:05:08.112Z,95409.00
2023-05-17T07:06:38.276Z,95413.00
2023-05-17T07:07:06.321Z,95413.00
2023-05-17T07:08:06.835Z,95415.00
2023-05-17T07:09:13.752Z,95415.00
2023-05-17T07:10:06.313Z,95411.00
2023-05-17T07:11:06.314Z,95417.00
2023-05-17T07:12:06.291Z,95417.00
2023-05-17T07:13:06.686Z,95420.00
2023-05-17T07:14:09.510Z,95417.00
2023-05-17T07:15:13.677Z,95418.00
2023-05-17T07:16:06.287Z,95418.00
2023-05-17T07:17:06.270Z,95418.00
2023-05-17T07:18:06.823Z,95420.00
2023-05-17T07:19:06.394Z,95420.00
2023-05-17T07:20:06.513Z,95418.00
2023-05-17T07:21:07.229Z,95420.00
2023-05-17T07:22:06.216Z,95422.00
2023-05-17T07:23:06.374Z,95420.00
2023-05-17T07:24:06.501Z,95420.00
2023-05-17T07:25:06.204Z,95422.00
2023-05-17T07:26:06.201Z,95422.00
2023-05-17T07:27:06.196Z,95418.00
2023-05-17T07:28:06.334Z,95418.00
2023-05-17T07:29:06.687Z,95413.00
2023-05-17T07:30:06.196Z,95417.00
2023-05-17T07:31:06.198Z,95418.00
2023-05-17T07:32:06.216Z,95418.00
2023-05-17T07:33:06.757Z,95418.00
2023-05-17T07:34:06.406Z,95418.00
2023-05-17T07:35:06.385Z,95418.00
2023-05-17T07:36:06.728Z,95422.00
2023-05-17T07:37:06.401Z,95418.00
2023-05-17T07:38:06.421Z,95418.00
2023-05-17T07:39:06.459Z,95420.00
2023-05-17T07:40:06.859Z,95418.00
2023-05-17T07:41:06.503Z,95420.00
2023-05-17T07:42:06.581Z,95422.00
2023-05-17T07:43:22.320Z,95422.00
2023-05-17T07:44:06.885Z,95418.00
2023-05-17T07:45:13.965Z,95420.00
2023-05-17T07:46:06.573Z,95418.00
2023-05-17T07:47:06.599Z,95422.00
2023-05-17T07:48:15.327Z,95420.00
2023-05-17T07:49:06.701Z,95420.00
2023-05-17T07:50:06.536Z,95420.00
2023-05-17T07:51:06.498Z,95422.00
2023-05-17T07:52:06.497Z,95420.00
2023-05-17T07:53:06.699Z,95424.00
2023-05-17T07:54:10.706Z,95420.00
2023-05-17T07:55:06.552Z,95420.00
2023-05-17T07:56:09.725Z,95422.00
2023-05-17T07:57:06.459Z,95420.00
2023-05-17T07:58:07.699Z,95420.00
2023-05-17T07:59:13.814Z,95422.00
2023-05-17T08:00:13.855Z,95418.00
2023-05-17T08:01:09.612Z,95424.00
2023-05-17T08:02:13.922Z,95422.00
2023-05-17T08:03:06.757Z,95426.00
2023-05-17T08:04:06.425Z,95424.00
2023-05-17T08:05:06.351Z,95426.00
2023-05-17T08:06:06.373Z,95428.00
2023-05-17T08:07:06.336Z,95430.00
2023-05-17T08:08:06.709Z,95428.00
2023-05-17T08:09:06.539Z,95432.00
2023-05-17T08:10:06.317Z,95432.00
2023-05-17T08:11:06.284Z,95432.00
2023-05-17T08:12:07.345Z,95434.00
2023-05-17T08:13:06.721Z,95434.00
2023-05-17T08:14:06.253Z,95438.00
2023-05-17T08:15:06.236Z,95438.00
2023-05-17T08:16:13.450Z,95444.00
2023-05-17T08:17:06.222Z,95446.00
2023-05-17T08:18:06.366Z,95450.00
2023-05-17T08:19:06.252Z,95444.00
2023-05-17T08:20:06.300Z,95448.00
2023-05-17T08:21:06.164Z,95450.00
2023-05-17T08:22:07.142Z,95456.00
2023-05-17T08:23:06.215Z,95454.00
2023-05-17T08:24:06.123Z,95456.00
2023-05-17T08:25:06.111Z,95460.00
2023-05-17T08:26:06.095Z,95460.00
2023-05-17T08:27:06.080Z,95460.00
2023-05-17T08:28:06.252Z,95464.00
2023-05-17T08:29:06.147Z,95468.00
2023-05-17T08:30:09.204Z,95469.00
2023-05-17T08:31:06.041Z,95471.00
2023-05-17T08:32:06.063Z,95471.00
2023-05-17T08:33:06.303Z,95473.00
2023-05-17T08:34:06.150Z,95473.00
2023-05-17T08:35:06.043Z,95475.00
2023-05-17T08:36:06.970Z,95475.00
2023-05-17T08:37:07.202Z,95479.00
2023-05-17T08:38:05.965Z,95479.00
2023-05-17T08:39:06.008Z,95483.00
2023-05-17T08:40:05.984Z,95485.00
2023-05-17T08:41:06.384Z,95485.00
2023-05-17T08:42:06.209Z,95487.00
2023-05-17T08:43:07.207Z,95485.00
2023-05-17T08:44:06.304Z,95489.00
2023-05-17T08:45:06.054Z,95491.00
2023-05-17T08:46:13.611Z,95491.00
2023-05-17T08:47:06.094Z,95493.00
2023-05-17T08:48:06.251Z,95495.00
2023-05-17T08:49:07.166Z,95495.00
2023-05-17T08:50:06.144Z,95495.00
2023-05-17T08:51:06.223Z,95497.00
2023-05-17T08:52:06.213Z,95497.00
2023-05-17T08:53:06.767Z,95501.00
2023-05-17T08:54:06.005Z,95503.00
2023-05-17T08:55:06.308Z,95501.00
2023-05-17T08:56:06.062Z,95505.00
2023-05-17T08:57:06.215Z,95505.00
2023-05-17T08:58:06.158Z,95505.00
2023-05-17T08:59:06.209Z,95505.00
2023-05-17T09:00:07.371Z,95505.00
2023-05-17T09:01:06.303Z,95509.00
2023-05-17T09:02:06.716Z,95505.00
2023-05-17T09:03:07.305Z,95509.00
2023-05-17T09:04:06.459Z,95507.00
2023-05-17T09:05:14.175Z,95513.00
2023-05-17T09:06:06.632Z,95509.00
2023-05-17T09:07:06.731Z,95511.00
2023-05-17T09:08:06.460Z,95513.00
2023-05-17T09:09:06.433Z,95513.00
2023-05-17T09:10:06.409Z,95513.00
2023-05-17T09:11:06.396Z,95513.00
2023-05-17T09:12:06.752Z,95513.00
2023-05-17T09:13:06.394Z,95515.00
2023-05-17T09:14:06.395Z,95513.00
2023-05-17T09:15:06.385Z,95515.00
2023-05-17T09:16:06.413Z,95517.00
2023-05-17T09:17:07.713Z,95517.00
2023-05-17T09:18:06.452Z,95517.00
2023-05-17T09:19:06.833Z,95519.00
2023-05-17T09:20:06.431Z,95520.00
2023-05-17T09:21:06.456Z,95520.00
2023-05-17T09:22:06.495Z,95522.00
2023-05-17T09:23:06.719Z,95520.00
2023-05-17T09:24:08.387Z,95524.00
2023-05-17T09:25:06.616Z,95526.00
2023-05-17T09:26:06.630Z,95524.00
2023-05-17T09:27:06.624Z,95526.00
2023-05-17T09:28:06.765Z,95528.00
2023-05-17T09:29:07.226Z,95530.00
2023-05-17T09:30:07.194Z,95534.00
2023-05-17T09:31:08.565Z,95534.00
2023-05-17T09:32:06.650Z,95536.00
2023-05-17T09:33:06.545Z,95538.00
2023-05-17T09:34:06.528Z,95538.00
2023-05-17T09:35:06.735Z,95538.00
2023-05-17T09:36:06.493Z,95536.00
2023-05-17T09:37:06.726Z,95534.00
2023-05-17T09:38:06.735Z,95532.00
2023-05-17T09:39:06.478Z,95530.00
2023-05-17T09:40:06.438Z,95530.00
2023-05-17T09:41:06.453Z,95530.00
2023-05-17T09:42:06.753Z,95532.00
2023-05-17T09:43:06.733Z,95532.00
2023-05-17T09:44:06.370Z,95532.00
2023-05-17T09:45:06.369Z,95540.00
2023-05-17T09:46:06.350Z,95540.00
2023-05-17T09:47:06.340Z,95540.00
2023-05-17T09:48:06.857Z,95540.00
2023-05-17T09:49:06.936Z,95542.00
2023-05-17T09:50:09.567Z,95538.00
2023-05-17T09:51:06.267Z,95540.00
2023-05-17T09:52:06.251Z,95538.00
2023-05-17T09:53:06.750Z,95538.00
2023-05-17T09:54:06.240Z,95540.00
2023-05-17T09:55:06.312Z,95538.00
2023-05-17T09:56:06.211Z,95542.00
2023-05-17T09:57:06.192Z,95542.00
2023-05-17T09:58:06.248Z,95544.00
2023-05-17T09:59:06.164Z,95546.00
2023-05-17T10:00:06.178Z,95550.00
2023-05-17T10:01:06.158Z,95554.00
2023-05-17T10:02:06.125Z,95554.00
2023-05-17T10:03:06.274Z,95554.00
2023-05-17T10:04:06.530Z,95558.00
2023-05-17T10:05:06.181Z,95556.00
2023-05-17T10:06:06.063Z,95556.00
2023-05-17T10:07:06.057Z,95556.00
2023-05-17T10:08:06.040Z,95560.00
2023-05-17T10:09:06.025Z,95558.00
2023-05-17T10:10:06.015Z,95558.00
2023-05-17T10:11:06.004Z,95558.00
2023-05-17T10:12:06.059Z,95562.00
2023-05-17T10:13:06.243Z,95560.00
2023-05-17T10:14:05.990Z,95560.00
2023-05-17T10:15:06.004Z,95562.00
2023-05-17T10:16:05.966Z,95562.00
2023-05-17T10:17:05.990Z,95560.00
2023-05-17T10:18:06.082Z,95558.00
2023-05-17T10:19:06.134Z,95558.00
2023-05-17T10:20:06.092Z,95558.00
2023-05-17T10:21:06.041Z,95558.00
2023-05-17T10:22:21.677Z,95558.00
2023-05-17T10:23:06.021Z,95558.00
2023-05-17T10:24:05.998Z,95556.00
2023-05-17T10:25:06.250Z,95558.00
2023-05-17T10:26:05.958Z,95558.00
2023-05-17T10:27:05.931Z,95556.00
2023-05-17T10:28:05.923Z,95554.00
2023-05-17T10:29:09.121Z,95552.00
2023-05-17T10:30:07.264Z,95552.00
2023-05-17T10:31:05.867Z,95552.00
2023-05-17T10:32:05.880Z,95550.00
2023-05-17T10:33:05.916Z,95550.00
2023-05-17T10:34:05.947Z,95550.00
2023-05-17T10:35:11.934Z,95552.00
2023-05-17T10:36:05.843Z,95552.00
2023-05-17T10:37:05.788Z,95554.00
2023-05-17T10:38:06.270Z,95552.00
2023-05-17T10:39:05.751Z,95552.00
2023-05-17T10:40:05.750Z,95550.00
2023-05-17T10:41:05.723Z,95550.00
2023-05-17T10:42:14.185Z,95550.00
2023-05-17T10:43:05.756Z,95548.00
2023-05-17T10:44:05.677Z,95546.00
2023-05-17T10:45:05.758Z,95546.00
2023-05-17T10:46:05.628Z,95546.00
2023-05-17T10:47:05.611Z,95544.00
2023-05-17T10:48:05.624Z,95542.00
2023-05-17T10:49:05.783Z,95542.00
2023-05-17T10:50:05.535Z,95544.00
2023-05-17T10:51:05.561Z,95542.00
2023-05-17T10:52:05.520Z,95546.00
2023-05-17T10:53:05.518Z,95546.00
2023-05-17T10:54:05.461Z,95548.00
2023-05-17T10:55:05.449Z,95544.00
2023-05-17T10:56:05.418Z,95542.00
2023-05-17T10:57:06.546Z,95546.00
2023-05-17T10:58:05.382Z,95546.00
2023-05-17T10:59:05.366Z,95542.00
2023-05-17T11:00:05.341Z,95542.00
2023-05-17T11:01:05.328Z,95542.00
2023-05-17T11:02:05.339Z,95540.00
2023-05-17T11:03:05.386Z,95540.00
2023-05-17T11:04:05.789Z,95542.00
2023-05-17T11:05:05.982Z,95542.00
2023-05-17T11:06:22.725Z,95542.00
2023-05-17T11:07:07.379Z,95542.00
2023-05-17T11:08:05.307Z,95540.00
2023-05-17T11:09:05.268Z,95540.00
2023-05-17T11:10:05.184Z,95538.00
2023-05-17T11:11:05.171Z,95540.00
2023-05-17T11:12:05.145Z,95540.00
2023-05-17T11:13:05.265Z,95540.00
2023-05-17T11:14:05.146Z,95536.00
2023-05-17T11:15:06.761Z,95538.00
2023-05-17T11:16:05.135Z,95540.00
2023-05-17T11:17:05.073Z,95538.00
2023-05-17T11:18:07.390Z,95538.00
2023-05-17T11:19:05.210Z,95538.00
2023-05-17T11:20:05.067Z,95538.00
2023-05-17T11:21:05.032Z,95538.00
2023-05-17T11:22:04.980Z,95536.00
2023-05-17T11:23:04.976Z,95534.00
2023-05-17T11:24:04.981Z,95534.00
2023-05-17T11:25:04.930Z,95534.00
2023-05-17T11:26:15.316Z,95536.00
2023-05-17T11:27:04.897Z,95538.00
2023-05-17T11:28:04.892Z,95538.00
2023-05-17T11:29:04.903Z,95538.00
2023-05-17T11:30:04.870Z,95540.00
2023-05-17T11:31:04.857Z,95538.00
2023-05-17T11:32:04.846Z,95542.00
2023-05-17T11:33:07.194Z,95542.00
2023-05-17T11:34:04.859Z,95540.00
2023-05-17T11:35:04.812Z,95538.00
2023-05-17T11:36:04.823Z,95540.00
2023-05-17T11:37:04.795Z,95540.00
2023-05-17T11:38:04.790Z,95542.00
2023-05-17T11:39:08.448Z,95542.00
2023-05-17T11:40:04.796Z,95540.00
2023-05-17T11:41:06.353Z,95542.00
2023-05-17T11:42:04.737Z,95542.00
2023-05-17T11:43:04.716Z,95538.00
2023-05-17T11:44:04.700Z,95540.00
2023-05-17T11:45:04.684Z,95538.00
2023-05-17T11:46:04.684Z,95538.00
2023-05-17T11:47:04.716Z,95538.00
2023-05-17T11:48:04.738Z,95540.00
2023-05-17T11:49:04.634Z,95540.00
2023-05-17T11:50:04.844Z,95536.00